createdAt,value
2018-10-17T00:00:23.676Z,26.73
2018-10-17T00:02:52.413Z,24.93
2018-10-17T00:05:21.057Z,26.47
2018-10-17T00:07:49.686Z,26.20
2018-10-17T00:10:18.330Z,26.27
2018-10-17T00:12:46.958Z,27.13
2018-10-17T00:15:15.533Z,26.87
2018-10-17T00:17:44.118Z,28.10
2018-10-17T00:20:12.670Z,26.17
2018-10-17T00:22:41.242Z,26.10
2018-10-17T00:25:09.829Z,28.87
2018-10-17T00:27:38.321Z,27.30
2018-10-17T00:30:10.377Z,28.37
2018-10-17T00:32:38.941Z,28.43
2018-10-17T00:35:08.259Z,29.17
2018-10-17T00:37:36.784Z,29.83
2018-10-17T00:40:05.374Z,28.23
2018-10-17T00:42:33.913Z,28.37
2018-10-17T00:45:02.426Z,28.63
2018-10-17T00:47:31.017Z,28.60
2018-10-17T00:49:59.576Z,27.57
2018-10-17T00:52:28.163Z,27.07
2018-10-17T00:54:56.765Z,28.30
2018-10-17T00:57:26.251Z,27.40
2018-10-17T00:59:54.957Z,27.20
2018-10-17T01:02:23.551Z,28.40
2018-10-17T01:04:52.260Z,26.17
2018-10-17T01:07:20.914Z,25.90
2018-10-17T01:09:49.626Z,26.53
2018-10-17T01:12:18.391Z,26.77
2018-10-17T01:14:47.038Z,26.67
2018-10-17T01:17:15.674Z,25.63
2018-10-17T01:19:44.219Z,26.03
2018-10-17T01:22:12.954Z,24.47
2018-10-17T01:24:41.595Z,26.00
2018-10-17T01:27:10.206Z,26.60
2018-10-17T01:29:38.765Z,24.90
2018-10-17T01:32:07.491Z,25.13
2018-10-17T01:34:36.088Z,26.27
2018-10-17T01:37:04.858Z,25.20
2018-10-17T01:39:33.478Z,25.73
2018-10-17T01:42:02.161Z,25.57
2018-10-17T01:44:30.808Z,25.37
2018-10-17T01:46:59.313Z,25.77
2018-10-17T01:49:27.884Z,26.33
2018-10-17T01:51:56.446Z,27.50
2018-10-17T01:54:25.000Z,26.77
2018-10-17T01:56:53.660Z,27.43
2018-10-17T01:59:22.192Z,28.13
2018-10-17T02:01:50.748Z,28.60
2018-10-17T02:04:19.361Z,28.20
2018-10-17T02:06:47.864Z,28.50
2018-10-17T02:09:16.426Z,30.23
2018-10-17T02:11:44.997Z,32.50
2018-10-17T02:14:13.527Z,31.73
2018-10-17T02:16:42.119Z,33.13
2018-10-17T02:19:10.903Z,33.57
2018-10-17T02:21:39.440Z,34.37
2018-10-17T02:24:08.370Z,34.93
2018-10-17T02:26:36.929Z,34.87
2018-10-17T02:29:06.081Z,35.77
2018-10-17T02:31:34.915Z,34.60
2018-10-17T02:34:03.521Z,35.93
2018-10-17T02:36:32.059Z,34.60
2018-10-17T02:39:00.657Z,35.20
2018-10-17T02:41:29.210Z,36.50
2018-10-17T02:43:57.988Z,34.70
2018-10-17T02:46:26.612Z,35.93
2018-10-17T02:48:55.195Z,33.83
2018-10-17T02:51:23.876Z,34.60
2018-10-17T02:53:52.436Z,34.83
2018-10-17T02:56:20.997Z,33.23
2018-10-17T02:58:49.520Z,33.63
2018-10-17T03:01:18.189Z,33.13
2018-10-17T03:03:46.846Z,34.50
2018-10-17T03:06:15.487Z,35.93
2018-10-17T03:08:44.066Z,34.27
2018-10-17T03:11:12.787Z,35.80
2018-10-17T03:13:41.398Z,38.07
2018-10-17T03:16:10.103Z,37.43
2018-10-17T03:18:38.791Z,36.70
2018-10-17T03:21:07.589Z,35.53
2018-10-17T03:23:37.476Z,35.57
2018-10-17T03:26:07.307Z,34.80
2018-10-17T03:28:38.711Z,36.33
2018-10-17T03:31:08.664Z,34.87
2018-10-17T03:33:37.327Z,33.00
2018-10-17T03:36:06.843Z,33.00
2018-10-17T03:38:35.532Z,33.37
2018-10-17T03:41:04.314Z,33.10
2018-10-17T03:43:32.888Z,31.87
2018-10-17T03:46:01.495Z,32.73
2018-10-17T03:48:30.143Z,33.20
2018-10-17T03:50:58.733Z,33.40
2018-10-17T03:53:27.296Z,31.50
2018-10-17T03:55:56.483Z,32.90
2018-10-17T03:58:25.099Z,32.03
2018-10-17T04:00:53.798Z,33.20
2018-10-17T04:03:22.367Z,32.50
2018-10-17T04:05:51.223Z,32.07
2018-10-17T04:08:19.970Z,33.70
2018-10-17T04:10:48.646Z,32.77
2018-10-17T04:13:17.315Z,33.93
2018-10-17T04:15:45.748Z,32.63
2018-10-17T04:18:14.271Z,32.73
2018-10-17T04:20:42.899Z,32.27
2018-10-17T04:23:11.560Z,31.73
2018-10-17T04:25:40.054Z,34.40
2018-10-17T04:28:08.580Z,31.70
2018-10-17T04:30:37.195Z,32.10
2018-10-17T04:33:06.056Z,32.77
2018-10-17T04:35:34.676Z,31.73
2018-10-17T04:38:03.276Z,34.30
2018-10-17T04:40:31.834Z,33.33
2018-10-17T04:43:00.448Z,31.50
2018-10-17T04:45:28.998Z,31.87
2018-10-17T04:47:58.373Z,31.27
2018-10-17T04:50:27.023Z,31.77
2018-10-17T04:52:55.946Z,30.43
2018-10-17T04:55:24.434Z,31.63
2018-10-17T04:57:52.980Z,31.17
2018-10-17T05:00:21.538Z,31.23
2018-10-17T05:02:50.140Z,30.77
2018-10-17T05:05:18.708Z,29.73
2018-10-17T05:07:47.273Z,29.33
2018-10-17T05:10:16.018Z,28.93
2018-10-17T05:12:44.641Z,28.13
2018-10-17T05:15:13.372Z,29.40
2018-10-17T05:17:42.001Z,29.83
2018-10-17T05:20:10.538Z,28.07
2018-10-17T05:22:39.211Z,27.93
2018-10-17T05:25:08.410Z,28.00
2018-10-17T05:27:37.582Z,29.77
2018-10-17T05:30:08.010Z,28.77
2018-10-17T05:32:36.687Z,28.43
2018-10-17T05:35:06.369Z,28.20
2018-10-17T05:37:34.920Z,28.60
2018-10-17T05:40:04.124Z,28.80
2018-10-17T05:42:32.790Z,27.80
2018-10-17T05:45:01.372Z,28.27
2018-10-17T05:47:29.911Z,27.63
2018-10-17T05:49:59.125Z,27.23
2018-10-17T05:52:27.823Z,25.80
2018-10-17T05:54:56.416Z,26.83
2018-10-17T05:57:24.984Z,25.73
2018-10-17T05:59:54.349Z,27.17
2018-10-17T06:02:25.373Z,27.93
2018-10-17T06:04:54.421Z,27.33
2018-10-17T06:07:23.118Z,28.23
2018-10-17T06:09:51.700Z,27.13
2018-10-17T06:12:20.401Z,27.40
2018-10-17T06:14:48.987Z,26.97
2018-10-17T06:17:17.615Z,26.00
2018-10-17T06:19:46.236Z,26.73
2018-10-17T06:22:14.955Z,26.60
2018-10-17T06:24:43.521Z,27.47
2018-10-17T06:27:12.354Z,25.73
2018-10-17T06:29:41.111Z,26.80
2018-10-17T06:32:10.227Z,25.90
2018-10-17T06:34:38.871Z,25.30
2018-10-17T06:37:07.851Z,24.60
2018-10-17T06:39:36.955Z,25.67
2018-10-17T06:42:06.150Z,24.53
2018-10-17T06:44:34.761Z,24.00
2018-10-17T06:47:03.373Z,24.73
2018-10-17T06:49:32.975Z,24.13
2018-10-17T06:52:01.662Z,23.03
2018-10-17T06:54:31.054Z,24.43
2018-10-17T06:56:59.599Z,23.93
2018-10-17T06:59:28.239Z,24.10
2018-10-17T07:01:56.964Z,24.33
2018-10-17T07:04:25.532Z,23.33
2018-10-17T07:06:54.259Z,24.07
2018-10-17T07:09:22.772Z,24.77
2018-10-17T07:11:51.406Z,25.47
2018-10-17T07:14:20.074Z,24.57
2018-10-17T07:16:48.660Z,23.87
2018-10-17T07:19:17.300Z,23.50
2018-10-17T07:21:45.893Z,23.37
2018-10-17T07:24:14.440Z,22.97
2018-10-17T07:26:43.018Z,23.67
2018-10-17T07:29:11.692Z,23.90
2018-10-17T07:31:40.421Z,24.07
2018-10-17T07:34:09.683Z,22.33
2018-10-17T07:36:38.203Z,22.10
2018-10-17T07:39:08.690Z,22.53
2018-10-17T07:41:37.255Z,23.40
2018-10-17T07:44:06.097Z,23.50
2018-10-17T07:46:34.809Z,23.47
2018-10-17T07:49:03.395Z,21.73
2018-10-17T07:51:31.949Z,21.57
2018-10-17T07:54:01.347Z,20.63
2018-10-17T07:56:30.150Z,19.53
2018-10-17T07:58:58.790Z,19.63
2018-10-17T08:01:27.612Z,20.07
2018-10-17T08:03:56.349Z,21.37
2018-10-17T08:06:25.121Z,21.03
2018-10-17T08:08:54.253Z,21.37
2018-10-17T08:11:24.429Z,20.10
2018-10-17T08:13:53.033Z,21.80
2018-10-17T08:16:21.612Z,20.40
2018-10-17T08:18:50.191Z,20.30
2018-10-17T08:21:18.926Z,20.60
2018-10-17T08:23:47.540Z,19.77
2018-10-17T08:26:16.159Z,20.53
2018-10-17T08:28:44.712Z,19.67
2018-10-17T08:31:13.469Z,20.53
2018-10-17T08:33:42.093Z,19.60
2018-10-17T08:36:10.686Z,19.87
2018-10-17T08:38:39.182Z,19.30
2018-10-17T08:41:07.888Z,19.10
2018-10-17T08:43:36.380Z,16.13
2018-10-17T08:46:05.017Z,15.70
2018-10-17T08:48:33.612Z,14.67
2018-10-17T08:51:02.356Z,14.23
2018-10-17T08:53:30.897Z,14.63
2018-10-17T08:55:59.545Z,14.50
2018-10-17T08:58:28.660Z,10.70
2018-10-17T09:00:57.269Z,11.93
2018-10-17T09:03:25.782Z,12.87
2018-10-17T09:05:54.609Z,12.67
2018-10-17T09:08:23.154Z,15.03
2018-10-17T09:10:51.763Z,16.27
2018-10-17T09:13:20.353Z,14.67
2018-10-17T09:15:48.870Z,13.13
2018-10-17T09:18:17.450Z,13.70
2018-10-17T09:20:46.319Z,13.83
2018-10-17T09:23:14.670Z,13.93
2018-10-17T09:25:43.416Z,11.23
2018-10-17T09:28:12.063Z,10.00
2018-10-17T09:30:40.651Z,10.17
2018-10-17T09:33:09.211Z,10.43
2018-10-17T09:35:39.011Z,12.50
2018-10-17T09:38:07.483Z,12.73
2018-10-17T09:40:36.058Z,12.87
2018-10-17T09:43:04.695Z,13.33
2018-10-17T09:45:33.326Z,12.80
2018-10-17T09:48:02.209Z,14.03
2018-10-17T09:50:30.816Z,14.30
2018-10-17T09:52:59.524Z,13.93
2018-10-17T09:55:28.117Z,15.40
2018-10-17T09:57:56.822Z,14.03
2018-10-17T10:00:30.661Z,13.23
2018-10-17T10:02:59.430Z,12.83
2018-10-17T10:05:27.960Z,13.50
2018-10-17T10:07:56.668Z,10.83
2018-10-17T10:10:25.378Z,9.87
2018-10-17T10:12:54.110Z,8.40
2018-10-17T10:15:22.687Z,9.30
2018-10-17T10:17:51.404Z,9.77
2018-10-17T10:20:20.019Z,8.60
2018-10-17T10:22:48.836Z,9.40
2018-10-17T10:25:18.696Z,8.47
2018-10-17T10:27:47.204Z,8.73
2018-10-17T10:30:15.719Z,8.00
2018-10-17T10:32:44.351Z,6.87
2018-10-17T10:35:12.865Z,6.00
2018-10-17T10:37:41.519Z,8.43
2018-10-17T10:40:10.215Z,8.87
2018-10-17T10:42:38.822Z,8.63
2018-10-17T10:45:07.889Z,9.03
2018-10-17T10:47:37.434Z,7.10
2018-10-17T10:50:07.576Z,6.60
2018-10-17T10:52:36.245Z,6.87
2018-10-17T10:55:04.929Z,6.17
2018-10-17T10:57:33.539Z,5.40
2018-10-17T11:00:02.527Z,5.10
2018-10-17T11:02:31.173Z,4.90
2018-10-17T11:04:59.819Z,4.30
2018-10-17T11:07:29.210Z,4.40
2018-10-17T11:09:57.737Z,4.10
2018-10-17T11:12:26.428Z,4.13
2018-10-17T11:14:55.352Z,3.60
2018-10-17T11:17:23.721Z,3.43
2018-10-17T11:19:53.105Z,3.40
2018-10-17T11:22:21.791Z,3.30
2018-10-17T11:24:50.338Z,4.33
2018-10-17T11:27:18.983Z,3.87
2018-10-17T11:29:47.626Z,3.43
2018-10-17T11:32:16.328Z,2.77
2018-10-17T11:34:44.939Z,2.47
2018-10-17T11:37:14.108Z,3.10
2018-10-17T11:39:42.705Z,3.20
2018-10-17T11:42:11.324Z,3.20
2018-10-17T11:44:40.016Z,3.30
2018-10-17T11:47:08.695Z,3.47
2018-10-17T11:49:38.495Z,3.20
2018-10-17T11:52:07.094Z,3.17
2018-10-17T11:54:35.631Z,3.07
2018-10-17T11:57:04.527Z,3.13
2018-10-17T11:59:33.140Z,2.90
2018-10-17T12:02:01.846Z,3.30
2018-10-17T12:04:30.931Z,2.90
2018-10-17T12:06:59.346Z,2.80
2018-10-17T12:09:27.943Z,3.07
2018-10-17T12:11:57.268Z,2.83
2018-10-17T12:14:25.760Z,2.80
2018-10-17T12:16:54.462Z,2.40
2018-10-17T12:19:22.944Z,2.57
2018-10-17T12:21:51.633Z,2.60
2018-10-17T12:24:20.219Z,2.30
2018-10-17T12:26:48.829Z,2.60
2018-10-17T12:29:17.664Z,2.80
2018-10-17T12:31:46.474Z,2.93
2018-10-17T12:34:15.164Z,2.80
2018-10-17T12:39:22.311Z,2.80
2018-10-17T12:41:51.047Z,2.93
2018-10-17T12:44:19.866Z,3.07
2018-10-17T12:46:48.527Z,2.90
2018-10-17T12:49:17.621Z,2.40
2018-10-17T12:51:46.304Z,2.90
2018-10-17T12:54:15.601Z,2.83
2018-10-17T12:56:44.270Z,2.53
2018-10-17T12:59:13.035Z,2.83
2018-10-17T13:01:41.675Z,3.23
2018-10-17T13:04:10.942Z,3.07
2018-10-17T13:06:39.876Z,3.10
2018-10-17T13:09:10.855Z,3.10
2018-10-17T13:11:40.069Z,3.00
2018-10-17T13:14:09.084Z,3.13
2018-10-17T13:16:37.788Z,3.00
2018-10-17T13:19:07.242Z,2.47
2018-10-17T13:21:36.188Z,2.63
2018-10-17T13:24:05.204Z,2.53
2018-10-17T13:26:33.923Z,2.80
2018-10-17T13:29:02.606Z,2.77
2018-10-17T13:31:31.377Z,3.10
2018-10-17T13:34:00.012Z,2.73
2018-10-17T13:36:28.720Z,2.60
2018-10-17T13:38:57.427Z,2.90
2018-10-17T13:41:26.813Z,3.20
2018-10-17T13:43:55.659Z,2.90
2018-10-17T13:46:24.482Z,2.90
2018-10-17T13:48:53.097Z,2.50
2018-10-17T13:51:21.942Z,2.40
2018-10-17T13:53:50.695Z,2.33
2018-10-17T13:56:19.313Z,2.47
2018-10-17T13:58:47.887Z,2.13
2018-10-17T14:01:16.710Z,2.40
2018-10-17T14:03:45.267Z,2.50
2018-10-17T14:06:14.945Z,2.53
2018-10-17T14:08:43.602Z,2.17
2018-10-17T14:11:12.358Z,2.30
2018-10-17T14:13:41.021Z,2.40
2018-10-17T14:16:09.809Z,2.53
2018-10-17T14:18:38.512Z,2.60
2018-10-17T14:21:07.379Z,2.37
2018-10-17T14:23:36.072Z,1.97
2018-10-17T14:26:05.743Z,2.10
2018-10-17T14:28:34.665Z,1.90
2018-10-17T14:31:03.395Z,1.80
2018-10-17T14:33:32.164Z,1.97
2018-10-17T14:36:00.885Z,2.40
2018-10-17T14:38:30.173Z,2.00
2018-10-17T14:40:58.880Z,2.30
2018-10-17T14:43:28.482Z,2.30
2018-10-17T14:45:57.011Z,1.80
2018-10-17T14:48:25.633Z,1.70
2018-10-17T14:50:56.037Z,2.17
2018-10-17T14:53:24.710Z,1.73
2018-10-17T14:55:54.034Z,1.90
2018-10-17T14:58:22.631Z,2.00
2018-10-17T15:00:51.285Z,2.10
2018-10-17T15:03:19.984Z,2.00
2018-10-17T15:05:48.601Z,1.50
2018-10-17T15:08:17.332Z,2.07
2018-10-17T15:10:46.120Z,1.60
2018-10-17T15:13:14.646Z,1.60
2018-10-17T15:15:45.050Z,1.60
2018-10-17T15:18:15.462Z,1.80
2018-10-17T15:20:44.342Z,1.83
2018-10-17T15:23:14.053Z,1.90
2018-10-17T15:25:42.685Z,1.53
2018-10-17T15:28:11.236Z,2.13
2018-10-17T15:30:40.750Z,1.87
2018-10-17T15:33:09.370Z,2.17
2018-10-17T15:35:39.813Z,1.60
2018-10-17T15:38:08.449Z,2.20
2018-10-17T15:40:38.309Z,1.80
2018-10-17T15:43:07.484Z,1.43
2018-10-17T15:45:36.523Z,1.53
2018-10-17T15:48:05.690Z,1.40
2018-10-17T15:50:34.204Z,2.00
2018-10-17T15:53:04.208Z,1.70
2018-10-17T15:55:33.764Z,1.57
2018-10-17T15:58:03.350Z,1.63
2018-10-17T16:00:32.943Z,1.70
2018-10-17T16:03:01.548Z,2.20
2018-10-17T16:05:30.184Z,1.63
2018-10-17T16:07:58.786Z,1.73
2018-10-17T16:10:27.460Z,1.80
2018-10-17T16:12:56.800Z,1.80
2018-10-17T16:15:25.370Z,1.80
2018-10-17T16:17:54.005Z,1.80
2018-10-17T16:20:22.505Z,1.57
2018-10-17T16:22:51.949Z,1.90
2018-10-17T16:25:20.519Z,1.70
2018-10-17T16:27:49.102Z,1.77
2018-10-17T16:30:17.789Z,1.57
2018-10-17T16:32:46.686Z,1.37
2018-10-17T16:35:15.392Z,1.90
2018-10-17T16:37:44.211Z,2.03
2018-10-17T16:40:14.654Z,1.90
2018-10-17T16:42:43.371Z,1.83
2018-10-17T16:45:12.506Z,1.70
2018-10-17T16:47:41.468Z,1.77
2018-10-17T16:50:10.149Z,1.87
2018-10-17T16:52:38.842Z,2.10
2018-10-17T16:55:08.567Z,1.60
2018-10-17T16:57:37.339Z,2.10
2018-10-17T17:00:09.601Z,1.87
2018-10-17T17:02:38.422Z,2.30
2018-10-17T17:05:10.094Z,2.30
2018-10-17T17:07:38.993Z,2.20
2018-10-17T17:10:08.180Z,2.00
2018-10-17T17:12:36.737Z,2.20
2018-10-17T17:15:06.527Z,2.30
2018-10-17T17:17:35.081Z,2.40
2018-10-17T17:20:04.076Z,2.30
2018-10-17T17:22:32.808Z,2.77
2018-10-17T17:25:01.374Z,2.40
2018-10-17T17:27:30.060Z,2.57
2018-10-17T17:29:58.691Z,3.17
2018-10-17T17:32:27.296Z,2.90
2018-10-17T17:34:56.114Z,2.67
2018-10-17T17:37:24.973Z,2.80
2018-10-17T17:39:53.661Z,3.03
2018-10-17T17:42:22.376Z,2.80
2018-10-17T17:44:51.036Z,3.10
2018-10-17T17:47:19.584Z,2.77
2018-10-17T17:49:48.166Z,3.53
2018-10-17T17:52:17.044Z,3.30
2018-10-17T17:54:45.795Z,3.47
2018-10-17T17:57:14.432Z,3.10
2018-10-17T17:59:43.054Z,3.57
2018-10-17T18:02:11.848Z,3.43
2018-10-17T18:04:40.453Z,3.97
2018-10-17T18:07:09.342Z,3.90
2018-10-17T18:09:38.133Z,4.17
2018-10-17T18:12:06.940Z,4.37
2018-10-17T18:14:35.551Z,3.67
2018-10-17T18:17:04.424Z,3.93
2018-10-17T18:19:32.998Z,3.63
2018-10-17T18:22:01.719Z,3.83
2018-10-17T18:24:30.255Z,4.17
2018-10-17T18:26:58.847Z,3.80
2018-10-17T18:29:27.442Z,3.93
2018-10-17T18:31:56.368Z,3.70
2018-10-17T18:34:25.120Z,4.03
2018-10-17T18:36:53.996Z,4.13
2018-10-17T18:39:22.584Z,3.70
2018-10-17T18:41:52.302Z,4.43
2018-10-17T18:44:20.948Z,3.87
2018-10-17T18:46:49.809Z,3.30
2018-10-17T18:49:18.566Z,3.83
2018-10-17T18:51:47.233Z,4.10
2018-10-17T18:54:15.864Z,3.60
2018-10-17T18:56:44.658Z,4.30
2018-10-17T18:59:14.427Z,4.20
2018-10-17T19:01:43.250Z,4.10
2018-10-17T19:04:11.942Z,4.33
2018-10-17T19:06:40.777Z,4.63
2018-10-17T19:09:11.328Z,4.27
2018-10-17T19:11:39.980Z,4.80
2018-10-17T19:14:09.559Z,5.00
2018-10-17T19:16:38.312Z,5.30
2018-10-17T19:19:07.105Z,4.80
2018-10-17T19:21:36.245Z,4.77
2018-10-17T19:24:06.117Z,4.40
2018-10-17T19:26:34.747Z,5.90
2018-10-17T19:29:03.308Z,5.50
2018-10-17T19:31:31.920Z,5.33
2018-10-17T19:34:01.899Z,5.57
2018-10-17T19:36:30.626Z,5.00
2018-10-17T19:39:00.024Z,5.47
2018-10-17T19:41:28.753Z,5.03
2018-10-17T19:43:57.641Z,5.23
2018-10-17T19:46:27.800Z,5.90
2018-10-17T19:48:57.217Z,5.67
2018-10-17T19:51:26.799Z,5.30
2018-10-17T19:53:55.500Z,4.93
2018-10-17T19:56:24.364Z,5.50
2018-10-17T19:58:53.597Z,5.80
2018-10-17T20:01:22.375Z,5.40
2018-10-17T20:03:51.089Z,4.77
2018-10-17T20:06:19.884Z,4.67
2018-10-17T20:08:48.525Z,5.83
2018-10-17T20:11:17.429Z,5.50
2018-10-17T20:13:46.201Z,5.60
2018-10-17T20:16:16.368Z,6.37
2018-10-17T20:18:45.035Z,6.20
2018-10-17T20:21:13.707Z,5.93
2018-10-17T20:23:42.435Z,5.90
2018-10-17T20:26:12.643Z,6.10
2018-10-17T20:28:42.627Z,5.90
2018-10-17T20:31:12.094Z,6.43
2018-10-17T20:33:40.906Z,5.70
2018-10-17T20:36:09.668Z,6.73
2018-10-17T20:38:38.515Z,5.60
2018-10-17T20:41:07.157Z,5.97
2018-10-17T20:43:36.057Z,5.70
2018-10-17T20:46:04.829Z,5.80
2018-10-17T20:48:34.191Z,5.30
2018-10-17T20:51:03.243Z,5.90
2018-10-17T20:53:32.051Z,6.17
2018-10-17T20:56:00.755Z,6.20
2018-10-17T20:58:29.487Z,5.70
2018-10-17T21:00:58.585Z,6.53
2018-10-17T21:03:27.560Z,6.80
2018-10-17T21:05:56.417Z,6.43
2018-10-17T21:08:26.281Z,6.03
2018-10-17T21:10:55.135Z,6.10
2018-10-17T21:13:24.566Z,6.00
2018-10-17T21:15:53.443Z,6.40
2018-10-17T21:18:22.439Z,6.23
2018-10-17T21:20:51.204Z,5.97
2018-10-17T21:23:19.870Z,5.90
2018-10-17T21:25:48.686Z,5.80
2018-10-17T21:28:17.508Z,5.57
2018-10-17T21:30:46.124Z,6.03
2018-10-17T21:33:15.604Z,6.37
2018-10-17T21:35:44.241Z,6.97
2018-10-17T21:38:12.926Z,6.60
2018-10-17T21:40:41.547Z,6.70
2018-10-17T21:43:10.284Z,6.60
2018-10-17T21:45:39.093Z,7.10
2018-10-17T21:48:07.890Z,6.57
2018-10-17T21:50:36.616Z,6.83
2018-10-17T21:53:05.687Z,6.60
2018-10-17T21:55:34.557Z,6.87
2018-10-17T21:58:04.205Z,7.07
2018-10-17T22:00:32.816Z,6.80
2018-10-17T22:03:01.460Z,6.70
2018-10-17T22:05:30.124Z,6.07
2018-10-17T22:07:58.807Z,6.40
2018-10-17T22:10:27.386Z,6.47
2018-10-17T22:12:56.582Z,6.00
2018-10-17T22:15:26.743Z,6.13
2018-10-17T22:17:55.472Z,5.20
2018-10-17T22:20:25.101Z,5.07
2018-10-17T22:22:53.884Z,5.07
2018-10-17T22:25:22.459Z,5.00
2018-10-17T22:27:51.176Z,5.30
2018-10-17T22:30:19.871Z,5.10
2018-10-17T22:32:48.601Z,5.40
2018-10-17T22:35:17.361Z,5.90
2018-10-17T22:37:46.129Z,5.90
2018-10-17T22:40:14.926Z,5.60
2018-10-17T22:42:43.641Z,4.90
2018-10-17T22:45:12.363Z,6.00
2018-10-17T22:47:40.903Z,5.63
2018-10-17T22:50:10.349Z,5.40
2018-10-17T22:52:39.249Z,5.70
2018-10-17T22:55:07.874Z,5.70
2018-10-17T22:57:36.516Z,5.90
2018-10-17T23:00:05.920Z,6.13
2018-10-17T23:02:34.604Z,5.90
2018-10-17T23:05:03.272Z,6.27
2018-10-17T23:07:31.892Z,5.50
2018-10-17T23:10:00.469Z,5.50
2018-10-17T23:12:29.154Z,5.97
2018-10-17T23:14:57.846Z,5.73
2018-10-17T23:17:26.506Z,5.77
2018-10-17T23:19:55.294Z,6.57
2018-10-17T23:22:24.097Z,5.37
2018-10-17T23:24:52.730Z,6.40
2018-10-17T23:27:21.312Z,6.00
2018-10-17T23:29:49.943Z,5.83
2018-10-17T23:32:18.683Z,6.10
2018-10-17T23:34:47.195Z,5.80
2018-10-17T23:37:15.808Z,6.00
2018-10-17T23:39:44.432Z,5.73
2018-10-17T23:42:14.065Z,5.87
2018-10-17T23:44:42.663Z,5.57
2018-10-17T23:47:11.239Z,5.63
2018-10-17T23:49:39.789Z,6.10
2018-10-17T23:52:08.412Z,6.23
2018-10-17T23:54:37.060Z,5.47
2018-10-17T23:57:05.671Z,5.83
2018-10-17T23:59:34.261Z,5.23
